Effingham, Illinois
Current Conditions -  °F | °C
As of 7:15 PM on Thursday 18 Dec 2014 (Local Time) from K1H2 Reporting Station
Overcast Overcast  
Wind Chill: 31°   Ceiling: 4600
Heat Index: 31°   Visibility: 10mi
Dew Point: 23°   Wind: 0mph
Humidity: 71%   Direction: NA
Pressure: 30.29"   Gusts: NA
Location:  39.12°N, 88.54°W
Report Text: K1H2 190115Z AUTO 00000KT 10SM OVC046 00/M05 A3029 RMK AO2 T10051052
Loading
Personal Weather Stations






























Interactive Weather Map New forecast layout! Learn more

10-Day Weather Forecast

Advertisements
Track Severe Weather on mobile